sensor_id;sensor_type;location;lat;lon;timestamp;P1;durP1;ratioP1;P2;durP2;ratioP2
2838;SDS011;1427;48.510;9.060;2024-03-25T00:00:33;44.70;;;1.67;;
2838;SDS011;1427;48.510;9.060;2024-03-25T00:03:00;44.83;;;1.70;;
2838;SDS011;1427;48.510;9.060;2024-03-25T00:05:26;44.87;;;1.93;;
2838;SDS011;1427;48.510;9.060;2024-03-25T00:07:54;44.60;;;1.60;;
2838;SDS011;1427;48.510;9.060;2024-03-25T00:10:21;44.60;;;1.60;;
2838;SDS011;1427;48.510;9.060;2024-03-25T00:12:48;44.80;;;1.73;;
2838;SDS011;1427;48.510;9.060;2024-03-25T00:15:18;44.50;;;1.43;;
2838;SDS011;1427;48.510;9.060;2024-03-25T00:17:45;44.97;;;1.90;;
2838;SDS011;1427;48.510;9.060;2024-03-25T00:20:12;44.73;;;1.53;;
2838;SDS011;1427;48.510;9.060;2024-03-25T00:22:40;44.77;;;1.70;;
2838;SDS011;1427;48.510;9.060;2024-03-25T00:25:06;44.87;;;1.73;;
2838;SDS011;1427;48.510;9.060;2024-03-25T00:27:35;44.97;;;2.13;;
2838;SDS011;1427;48.510;9.060;2024-03-25T00:30:01;44.60;;;1.70;;
2838;SDS011;1427;48.510;9.060;2024-03-25T00:32:30;45.33;;;2.00;;
2838;SDS011;1427;48.510;9.060;2024-03-25T00:34:56;44.97;;;1.63;;
2838;SDS011;1427;48.510;9.060;2024-03-25T00:37:23;44.97;;;1.90;;
2838;SDS011;1427;48.510;9.060;2024-03-25T00:39:49;44.80;;;1.90;;
2838;SDS011;1427;48.510;9.060;2024-03-25T00:42:16;44.67;;;1.83;;
2838;SDS011;1427;48.510;9.060;2024-03-25T00:44:43;44.67;;;1.50;;
2838;SDS011;1427;48.510;9.060;2024-03-25T00:47:10;44.17;;;1.60;;
2838;SDS011;1427;48.510;9.060;2024-03-25T00:49:38;44.93;;;1.93;;
2838;SDS011;1427;48.510;9.060;2024-03-25T00:52:05;44.60;;;1.70;;
2838;SDS011;1427;48.510;9.060;2024-03-25T00:54:31;47.00;;;2.23;;
2838;SDS011;1427;48.510;9.060;2024-03-25T00:56:58;44.70;;;1.67;;
2838;SDS011;1427;48.510;9.060;2024-03-25T00:59:24;44.87;;;1.83;;
2838;SDS011;1427;48.510;9.060;2024-03-25T01:01:52;44.80;;;1.70;;
2838;SDS011;1427;48.510;9.060;2024-03-25T01:04:18;44.47;;;1.50;;
2838;SDS011;1427;48.510;9.060;2024-03-25T01:06:45;45.27;;;2.60;;
2838;SDS011;1427;48.510;9.060;2024-03-25T01:09:11;45.40;;;2.17;;
2838;SDS011;1427;48.510;9.060;2024-03-25T01:11:39;44.50;;;1.60;;
2838;SDS011;1427;48.510;9.060;2024-03-25T01:14:05;44.83;;;1.67;;
2838;SDS011;1427;48.510;9.060;2024-03-25T01:16:32;44.97;;;1.97;;
2838;SDS011;1427;48.510;9.060;2024-03-25T01:19:00;44.97;;;1.77;;
2838;SDS011;1427;48.510;9.060;2024-03-25T01:21:27;44.70;;;1.70;;
2838;SDS011;1427;48.510;9.060;2024-03-25T01:23:54;44.80;;;1.60;;
2838;SDS011;1427;48.510;9.060;2024-03-25T01:26:21;44.90;;;1.60;;
2838;SDS011;1427;48.510;9.060;2024-03-25T01:28:47;44.73;;;1.70;;
2838;SDS011;1427;48.510;9.060;2024-03-25T01:31:14;44.90;;;1.60;;
2838;SDS011;1427;48.510;9.060;2024-03-25T01:33:40;44.93;;;1.90;;
2838;SDS011;1427;48.510;9.060;2024-03-25T01:36:09;44.87;;;1.73;;
2838;SDS011;1427;48.510;9.060;2024-03-25T01:38:36;44.93;;;1.77;;
2838;SDS011;1427;48.510;9.060;2024-03-25T01:41:07;45.50;;;1.97;;
2838;SDS011;1427;48.510;9.060;2024-03-25T01:43:33;44.93;;;1.90;;
2838;SDS011;1427;48.510;9.060;2024-03-25T01:46:01;44.70;;;1.47;;
2838;SDS011;1427;48.510;9.060;2024-03-25T01:48:28;45.20;;;1.77;;
2838;SDS011;1427;48.510;9.060;2024-03-25T01:50:54;44.90;;;1.80;;
2838;SDS011;1427;48.510;9.060;2024-03-25T01:53:24;44.60;;;1.47;;
2838;SDS011;1427;48.510;9.060;2024-03-25T01:55:51;44.80;;;2.00;;
2838;SDS011;1427;48.510;9.060;2024-03-25T01:58:20;44.73;;;1.80;;
2838;SDS011;1427;48.510;9.060;2024-03-25T02:00:48;44.87;;;1.60;;
2838;SDS011;1427;48.510;9.060;2024-03-25T02:03:16;44.70;;;1.60;;
2838;SDS011;1427;48.510;9.060;2024-03-25T02:05:42;45.17;;;2.00;;
2838;SDS011;1427;48.510;9.060;2024-03-25T02:08:09;44.90;;;1.90;;
2838;SDS011;1427;48.510;9.060;2024-03-25T02:10:38;51.47;;;2.10;;
2838;SDS011;1427;48.510;9.060;2024-03-25T02:13:06;45.07;;;1.90;;
2838;SDS011;1427;48.510;9.060;2024-03-25T02:15:32;44.97;;;1.83;;
2838;SDS011;1427;48.510;9.060;2024-03-25T02:18:01;45.33;;;1.80;;
2838;SDS011;1427;48.510;9.060;2024-03-25T02:20:28;44.50;;;1.50;;
2838;SDS011;1427;48.510;9.060;2024-03-25T02:22:55;45.03;;;2.03;;
2838;SDS011;1427;48.510;9.060;2024-03-25T02:25:21;44.87;;;1.80;;
2838;SDS011;1427;48.510;9.060;2024-03-25T02:27:50;44.97;;;1.83;;
2838;SDS011;1427;48.510;9.060;2024-03-25T02:30:17;44.97;;;1.70;;
2838;SDS011;1427;48.510;9.060;2024-03-25T02:32:44;44.80;;;1.57;;
2838;SDS011;1427;48.510;9.060;2024-03-25T02:35:12;44.80;;;1.70;;
2838;SDS011;1427;48.510;9.060;2024-03-25T02:37:42;44.80;;;1.60;;
2838;SDS011;1427;48.510;9.060;2024-03-25T02:40:08;44.53;;;1.50;;
2838;SDS011;1427;48.510;9.060;2024-03-25T02:42:36;44.70;;;2.03;;
2838;SDS011;1427;48.510;9.060;2024-03-25T02:45:07;44.87;;;1.57;;
2838;SDS011;1427;48.510;9.060;2024-03-25T02:47:34;44.50;;;1.40;;
2838;SDS011;1427;48.510;9.060;2024-03-25T02:50:01;44.77;;;1.50;;
2838;SDS011;1427;48.510;9.060;2024-03-25T02:52:50;44.67;;;1.30;;
2838;SDS011;1427;48.510;9.060;2024-03-25T02:55:17;45.50;;;2.20;;
2838;SDS011;1427;48.510;9.060;2024-03-25T02:57:43;44.70;;;1.67;;
2838;SDS011;1427;48.510;9.060;2024-03-25T03:00:12;44.63;;;1.70;;
2838;SDS011;1427;48.510;9.060;2024-03-25T03:02:39;44.87;;;1.60;;
2838;SDS011;1427;48.510;9.060;2024-03-25T03:05:06;44.70;;;1.60;;
2838;SDS011;1427;48.510;9.060;2024-03-25T03:07:33;44.97;;;1.60;;
2838;SDS011;1427;48.510;9.060;2024-03-25T03:10:00;44.50;;;1.90;;
2838;SDS011;1427;48.510;9.060;2024-03-25T03:12:26;44.60;;;1.60;;
2838;SDS011;1427;48.510;9.060;2024-03-25T03:14:53;44.50;;;1.50;;
2838;SDS011;1427;48.510;9.060;2024-03-25T03:17:21;44.70;;;1.40;;
2838;SDS011;1427;48.510;9.060;2024-03-25T03:19:48;44.60;;;1.60;;
2838;SDS011;1427;48.510;9.060;2024-03-25T03:22:14;44.63;;;1.67;;
2838;SDS011;1427;48.510;9.060;2024-03-25T03:24:41;44.87;;;1.80;;
2838;SDS011;1427;48.510;9.060;2024-03-25T03:27:07;44.70;;;1.60;;
2838;SDS011;1427;48.510;9.060;2024-03-25T03:29:34;44.57;;;1.83;;
2838;SDS011;1427;48.510;9.060;2024-03-25T03:32:00;44.97;;;1.63;;
2838;SDS011;1427;48.510;9.060;2024-03-25T03:34:29;45.30;;;1.60;;
2838;SDS011;1427;48.510;9.060;2024-03-25T03:36:55;44.77;;;1.67;;
2838;SDS011;1427;48.510;9.060;2024-03-25T03:39:22;44.50;;;1.40;;
2838;SDS011;1427;48.510;9.060;2024-03-25T03:41:48;44.77;;;1.67;;
2838;SDS011;1427;48.510;9.060;2024-03-25T03:44:15;44.77;;;1.60;;
2838;SDS011;1427;48.510;9.060;2024-03-25T03:46:41;44.67;;;1.80;;
2838;SDS011;1427;48.510;9.060;2024-03-25T03:49:08;44.83;;;1.67;;
2838;SDS011;1427;48.510;9.060;2024-03-25T03:51:35;44.83;;;1.50;;
2838;SDS011;1427;48.510;9.060;2024-03-25T03:54:02;44.63;;;1.47;;
2838;SDS011;1427;48.510;9.060;2024-03-25T03:56:28;44.93;;;2.10;;
2838;SDS011;1427;48.510;9.060;2024-03-25T03:58:56;44.57;;;1.50;;
2838;SDS011;1427;48.510;9.060;2024-03-25T04:01:22;47.23;;;3.30;;
2838;SDS011;1427;48.510;9.060;2024-03-25T04:03:49;44.57;;;1.50;;
2838;SDS011;1427;48.510;9.060;2024-03-25T04:06:15;44.97;;;1.90;;
2838;SDS011;1427;48.510;9.060;2024-03-25T04:08:43;44.77;;;1.67;;
2838;SDS011;1427;48.510;9.060;2024-03-25T04:11:09;44.87;;;1.73;;
2838;SDS011;1427;48.510;9.060;2024-03-25T04:13:36;44.97;;;1.77;;
2838;SDS011;1427;48.510;9.060;2024-03-25T04:16:04;44.77;;;1.67;;
2838;SDS011;1427;48.510;9.060;2024-03-25T04:18:33;44.83;;;1.83;;
2838;SDS011;1427;48.510;9.060;2024-03-25T04:20:59;44.60;;;1.77;;
2838;SDS011;1427;48.510;9.060;2024-03-25T04:23:26;44.70;;;1.43;;
2838;SDS011;1427;48.510;9.060;2024-03-25T04:25:54;44.70;;;1.80;;
2838;SDS011;1427;48.510;9.060;2024-03-25T04:28:21;44.90;;;1.70;;
2838;SDS011;1427;48.510;9.060;2024-03-25T04:30:51;44.93;;;1.50;;
2838;SDS011;1427;48.510;9.060;2024-03-25T04:33:18;44.80;;;1.77;;
2838;SDS011;1427;48.510;9.060;2024-03-25T04:35:45;45.07;;;2.00;;
2838;SDS011;1427;48.510;9.060;2024-03-25T04:38:12;46.20;;;2.30;;
2838;SDS011;1427;48.510;9.060;2024-03-25T04:40:41;44.70;;;1.80;;
2838;SDS011;1427;48.510;9.060;2024-03-25T04:43:08;44.67;;;1.67;;
2838;SDS011;1427;48.510;9.060;2024-03-25T04:45:35;44.67;;;1.63;;
2838;SDS011;1427;48.510;9.060;2024-03-25T04:48:01;45.13;;;2.10;;
2838;SDS011;1427;48.510;9.060;2024-03-25T04:50:27;44.73;;;1.67;;
2838;SDS011;1427;48.510;9.060;2024-03-25T04:52:53;44.50;;;1.83;;
2838;SDS011;1427;48.510;9.060;2024-03-25T04:55:19;44.70;;;1.80;;
2838;SDS011;1427;48.510;9.060;2024-03-25T04:57:45;44.80;;;1.80;;
2838;SDS011;1427;48.510;9.060;2024-03-25T05:00:13;44.50;;;1.50;;
2838;SDS011;1427;48.510;9.060;2024-03-25T05:02:40;44.97;;;1.70;;
2838;SDS011;1427;48.510;9.060;2024-03-25T05:05:06;44.80;;;1.43;;
2838;SDS011;1427;48.510;9.060;2024-03-25T05:07:32;45.33;;;2.67;;
2838;SDS011;1427;48.510;9.060;2024-03-25T05:09:59;44.77;;;1.70;;
2838;SDS011;1427;48.510;9.060;2024-03-25T05:12:25;44.60;;;1.53;;
2838;SDS011;1427;48.510;9.060;2024-03-25T05:14:52;44.63;;;1.90;;
2838;SDS011;1427;48.510;9.060;2024-03-25T05:17:19;44.67;;;1.50;;
2838;SDS011;1427;48.510;9.060;2024-03-25T05:19:45;45.10;;;1.90;;
2838;SDS011;1427;48.510;9.060;2024-03-25T05:22:12;44.67;;;1.50;;
2838;SDS011;1427;48.510;9.060;2024-03-25T05:24:38;46.87;;;3.17;;
2838;SDS011;1427;48.510;9.060;2024-03-25T05:27:04;47.20;;;5.67;;
2838;SDS011;1427;48.510;9.060;2024-03-25T05:29:30;46.67;;;5.33;;
2838;SDS011;1427;48.510;9.060;2024-03-25T05:31:57;47.10;;;5.40;;
2838;SDS011;1427;48.510;9.060;2024-03-25T05:34:25;47.57;;;6.07;;
2838;SDS011;1427;48.510;9.060;2024-03-25T05:36:52;46.33;;;4.20;;
2838;SDS011;1427;48.510;9.060;2024-03-25T05:39:19;46.13;;;4.17;;
2838;SDS011;1427;48.510;9.060;2024-03-25T05:41:45;46.23;;;4.27;;
2838;SDS011;1427;48.510;9.060;2024-03-25T05:44:12;46.90;;;4.53;;
2838;SDS011;1427;48.510;9.060;2024-03-25T05:46:38;46.37;;;4.67;;
2838;SDS011;1427;48.510;9.060;2024-03-25T05:49:05;47.80;;;4.90;;
2838;SDS011;1427;48.510;9.060;2024-03-25T05:51:33;45.77;;;3.67;;
2838;SDS011;1427;48.510;9.060;2024-03-25T05:53:59;46.63;;;4.97;;
2838;SDS011;1427;48.510;9.060;2024-03-25T05:56:26;47.30;;;6.20;;
2838;SDS011;1427;48.510;9.060;2024-03-25T05:58:52;46.77;;;3.90;;
2838;SDS011;1427;48.510;9.060;2024-03-25T06:01:19;46.37;;;4.03;;
2838;SDS011;1427;48.510;9.060;2024-03-25T06:03:45;46.80;;;5.00;;
2838;SDS011;1427;48.510;9.060;2024-03-25T06:06:11;46.40;;;4.17;;
2838;SDS011;1427;48.510;9.060;2024-03-25T06:08:38;45.40;;;3.60;;
2838;SDS011;1427;48.510;9.060;2024-03-25T06:11:04;46.10;;;4.33;;
2838;SDS011;1427;48.510;9.060;2024-03-25T06:13:30;46.40;;;4.30;;
2838;SDS011;1427;48.510;9.060;2024-03-25T06:15:57;46.40;;;4.30;;
2838;SDS011;1427;48.510;9.060;2024-03-25T06:18:23;47.17;;;5.50;;
2838;SDS011;1427;48.510;9.060;2024-03-25T06:20:49;46.37;;;3.87;;
2838;SDS011;1427;48.510;9.060;2024-03-25T06:23:22;46.20;;;3.97;;
2838;SDS011;1427;48.510;9.060;2024-03-25T06:25:50;49.27;;;4.57;;
2838;SDS011;1427;48.510;9.060;2024-03-25T06:28:17;45.97;;;3.70;;
2838;SDS011;1427;48.510;9.060;2024-03-25T06:30:44;47.07;;;4.30;;
2838;SDS011;1427;48.510;9.060;2024-03-25T06:33:29;46.10;;;3.80;;
2838;SDS011;1427;48.510;9.060;2024-03-25T06:36:10;46.20;;;3.83;;
2838;SDS011;1427;48.510;9.060;2024-03-25T06:38:36;46.87;;;4.70;;
2838;SDS011;1427;48.510;9.060;2024-03-25T06:41:04;46.47;;;4.27;;
2838;SDS011;1427;48.510;9.060;2024-03-25T06:43:30;51.77;;;7.07;;
2838;SDS011;1427;48.510;9.060;2024-03-25T06:45:57;47.13;;;5.67;;
2838;SDS011;1427;48.510;9.060;2024-03-25T06:48:23;46.53;;;4.53;;
2838;SDS011;1427;48.510;9.060;2024-03-25T06:50:53;46.20;;;3.77;;
2838;SDS011;1427;48.510;9.060;2024-03-25T06:53:20;46.90;;;5.00;;
2838;SDS011;1427;48.510;9.060;2024-03-25T06:55:53;45.93;;;4.20;;
2838;SDS011;1427;48.510;9.060;2024-03-25T06:58:21;46.60;;;4.40;;
2838;SDS011;1427;48.510;9.060;2024-03-25T07:00:48;48.00;;;6.00;;
2838;SDS011;1427;48.510;9.060;2024-03-25T07:03:15;46.30;;;3.97;;
2838;SDS011;1427;48.510;9.060;2024-03-25T07:05:41;47.00;;;4.73;;
2838;SDS011;1427;48.510;9.060;2024-03-25T07:08:10;46.63;;;3.97;;
2838;SDS011;1427;48.510;9.060;2024-03-25T07:10:36;45.97;;;3.67;;
2838;SDS011;1427;48.510;9.060;2024-03-25T07:13:02;46.63;;;4.10;;
2838;SDS011;1427;48.510;9.060;2024-03-25T07:15:30;46.40;;;4.00;;
2838;SDS011;1427;48.510;9.060;2024-03-25T07:17:56;46.53;;;4.33;;
2838;SDS011;1427;48.510;9.060;2024-03-25T07:20:23;47.00;;;4.50;;
2838;SDS011;1427;48.510;9.060;2024-03-25T07:22:49;46.27;;;3.83;;
2838;SDS011;1427;48.510;9.060;2024-03-25T07:25:15;46.17;;;3.77;;
2838;SDS011;1427;48.510;9.060;2024-03-25T07:27:41;46.87;;;5.53;;
2838;SDS011;1427;48.510;9.060;2024-03-25T07:30:08;47.60;;;5.33;;
2838;SDS011;1427;48.510;9.060;2024-03-25T07:32:35;46.87;;;3.80;;
2838;SDS011;1427;48.510;9.060;2024-03-25T07:35:01;47.93;;;4.50;;
2838;SDS011;1427;48.510;9.060;2024-03-25T07:37:28;46.20;;;3.53;;
2838;SDS011;1427;48.510;9.060;2024-03-25T07:39:54;46.40;;;3.77;;
2838;SDS011;1427;48.510;9.060;2024-03-25T07:42:20;46.37;;;4.13;;
2838;SDS011;1427;48.510;9.060;2024-03-25T07:44:46;53.40;;;4.93;;
2838;SDS011;1427;48.510;9.060;2024-03-25T07:47:12;47.80;;;5.00;;
2838;SDS011;1427;48.510;9.060;2024-03-25T07:49:40;60.50;;;6.23;;
2838;SDS011;1427;48.510;9.060;2024-03-25T07:52:06;48.63;;;5.70;;
2838;SDS011;1427;48.510;9.060;2024-03-25T07:54:32;46.80;;;3.63;;
2838;SDS011;1427;48.510;9.060;2024-03-25T07:56:58;46.50;;;3.47;;
2838;SDS011;1427;48.510;9.060;2024-03-25T07:59:25;51.88;;;5.07;;
2838;SDS011;1427;48.510;9.060;2024-03-25T08:01:51;47.93;;;4.00;;
2838;SDS011;1427;48.510;9.060;2024-03-25T08:04:17;47.63;;;4.63;;
2838;SDS011;1427;48.510;9.060;2024-03-25T08:06:45;47.33;;;4.30;;
2838;SDS011;1427;48.510;9.060;2024-03-25T08:09:11;47.27;;;4.70;;
2838;SDS011;1427;48.510;9.060;2024-03-25T08:11:37;48.17;;;5.97;;
2838;SDS011;1427;48.510;9.060;2024-03-25T08:14:03;47.63;;;5.03;;
2838;SDS011;1427;48.510;9.060;2024-03-25T08:16:29;47.67;;;4.53;;
2838;SDS011;1427;48.510;9.060;2024-03-25T08:18:59;47.80;;;3.60;;
2838;SDS011;1427;48.510;9.060;2024-03-25T08:21:26;46.93;;;3.97;;
2838;SDS011;1427;48.510;9.060;2024-03-25T08:23:54;47.57;;;4.60;;
2838;SDS011;1427;48.510;9.060;2024-03-25T08:26:23;48.10;;;4.60;;
2838;SDS011;1427;48.510;9.060;2024-03-25T08:28:49;48.00;;;4.40;;
2838;SDS011;1427;48.510;9.060;2024-03-25T08:31:16;47.87;;;4.40;;
2838;SDS011;1427;48.510;9.060;2024-03-25T08:33:42;48.67;;;5.60;;
2838;SDS011;1427;48.510;9.060;2024-03-25T08:36:08;49.37;;;6.47;;
2838;SDS011;1427;48.510;9.060;2024-03-25T08:38:35;48.03;;;4.20;;
2838;SDS011;1427;48.510;9.060;2024-03-25T08:41:06;48.80;;;4.23;;
2838;SDS011;1427;48.510;9.060;2024-03-25T08:43:33;50.87;;;5.90;;
2838;SDS011;1427;48.510;9.060;2024-03-25T08:45:59;57.72;;;6.72;;
2838;SDS011;1427;48.510;9.060;2024-03-25T08:48:25;49.27;;;5.90;;
2838;SDS011;1427;48.510;9.060;2024-03-25T08:50:52;50.57;;;5.60;;
2838;SDS011;1427;48.510;9.060;2024-03-25T08:53:19;47.77;;;4.80;;
2838;SDS011;1427;48.510;9.060;2024-03-25T08:55:47;50.70;;;7.07;;
2838;SDS011;1427;48.510;9.060;2024-03-25T08:58:15;53.30;;;6.87;;
2838;SDS011;1427;48.510;9.060;2024-03-25T09:00:42;48.73;;;5.10;;
2838;SDS011;1427;48.510;9.060;2024-03-25T09:03:08;48.57;;;5.17;;
2838;SDS011;1427;48.510;9.060;2024-03-25T09:05:34;50.03;;;5.10;;
2838;SDS011;1427;48.510;9.060;2024-03-25T09:08:01;47.67;;;4.67;;
2838;SDS011;1427;48.510;9.060;2024-03-25T09:10:27;49.53;;;5.83;;
2838;SDS011;1427;48.510;9.060;2024-03-25T09:13:13;48.60;;;4.30;;
2838;SDS011;1427;48.510;9.060;2024-03-25T09:15:40;50.80;;;5.50;;
2838;SDS011;1427;48.510;9.060;2024-03-25T09:18:06;48.17;;;4.70;;
2838;SDS011;1427;48.510;9.060;2024-03-25T09:20:32;49.20;;;5.30;;
2838;SDS011;1427;48.510;9.060;2024-03-25T09:22:59;47.90;;;5.10;;
2838;SDS011;1427;48.510;9.060;2024-03-25T09:25:25;48.90;;;6.00;;
2838;SDS011;1427;48.510;9.060;2024-03-25T09:27:51;49.70;;;5.20;;
2838;SDS011;1427;48.510;9.060;2024-03-25T09:30:17;49.60;;;4.60;;
2838;SDS011;1427;48.510;9.060;2024-03-25T09:32:45;48.10;;;4.73;;
2838;SDS011;1427;48.510;9.060;2024-03-25T09:35:12;47.97;;;4.50;;
2838;SDS011;1427;48.510;9.060;2024-03-25T09:37:38;48.37;;;4.87;;
2838;SDS011;1427;48.510;9.060;2024-03-25T09:40:05;49.17;;;5.67;;
2838;SDS011;1427;48.510;9.060;2024-03-25T09:42:33;47.50;;;4.50;;
2838;SDS011;1427;48.510;9.060;2024-03-25T09:45:01;48.50;;;5.40;;
2838;SDS011;1427;48.510;9.060;2024-03-25T09:47:30;53.80;;;6.83;;
2838;SDS011;1427;48.510;9.060;2024-03-25T09:49:57;49.90;;;4.97;;
2838;SDS011;1427;48.510;9.060;2024-03-25T09:52:28;49.90;;;4.30;;
2838;SDS011;1427;48.510;9.060;2024-03-25T09:54:54;50.90;;;4.90;;
2838;SDS011;1427;48.510;9.060;2024-03-25T09:57:20;47.60;;;4.13;;
2838;SDS011;1427;48.510;9.060;2024-03-25T09:59:47;48.33;;;5.07;;
2838;SDS011;1427;48.510;9.060;2024-03-25T10:02:13;47.30;;;4.40;;
2838;SDS011;1427;48.510;9.060;2024-03-25T10:04:43;49.23;;;5.20;;
2838;SDS011;1427;48.510;9.060;2024-03-25T10:07:14;47.27;;;3.70;;
2838;SDS011;1427;48.510;9.060;2024-03-25T10:09:47;47.50;;;4.77;;
2838;SDS011;1427;48.510;9.060;2024-03-25T10:12:13;47.10;;;4.20;;
2838;SDS011;1427;48.510;9.060;2024-03-25T10:14:40;48.50;;;4.83;;
2838;SDS011;1427;48.510;9.060;2024-03-25T10:17:06;47.90;;;4.57;;
2838;SDS011;1427;48.510;9.060;2024-03-25T10:19:35;47.40;;;4.23;;
2838;SDS011;1427;48.510;9.060;2024-03-25T10:22:02;47.63;;;4.80;;
2838;SDS011;1427;48.510;9.060;2024-03-25T10:24:37;48.17;;;4.47;;
2838;SDS011;1427;48.510;9.060;2024-03-25T10:27:09;47.40;;;4.57;;
2838;SDS011;1427;48.510;9.060;2024-03-25T10:29:37;47.30;;;4.43;;
2838;SDS011;1427;48.510;9.060;2024-03-25T10:32:03;47.57;;;5.40;;
2838;SDS011;1427;48.510;9.060;2024-03-25T10:34:30;49.40;;;5.97;;
2838;SDS011;1427;48.510;9.060;2024-03-25T10:36:57;53.30;;;4.80;;
2838;SDS011;1427;48.510;9.060;2024-03-25T10:39:25;48.13;;;4.73;;
2838;SDS011;1427;48.510;9.060;2024-03-25T10:41:55;50.20;;;4.67;;
2838;SDS011;1427;48.510;9.060;2024-03-25T10:44:22;48.20;;;5.00;;
2838;SDS011;1427;48.510;9.060;2024-03-25T10:46:49;48.33;;;5.33;;
2838;SDS011;1427;48.510;9.060;2024-03-25T10:49:21;48.60;;;4.33;;
2838;SDS011;1427;48.510;9.060;2024-03-25T10:51:58;47.10;;;4.47;;
2838;SDS011;1427;48.510;9.060;2024-03-25T10:54:26;49.13;;;4.87;;
2838;SDS011;1427;48.510;9.060;2024-03-25T10:56:57;48.53;;;6.20;;
2838;SDS011;1427;48.510;9.060;2024-03-25T10:59:24;50.53;;;5.03;;
2838;SDS011;1427;48.510;9.060;2024-03-25T11:01:52;47.60;;;4.30;;
2838;SDS011;1427;48.510;9.060;2024-03-25T11:04:18;47.57;;;4.80;;
2838;SDS011;1427;48.510;9.060;2024-03-25T11:06:45;48.60;;;4.93;;
2838;SDS011;1427;48.510;9.060;2024-03-25T11:09:21;47.60;;;4.47;;
2838;SDS011;1427;48.510;9.060;2024-03-25T11:11:49;49.50;;;5.73;;
2838;SDS011;1427;48.510;9.060;2024-03-25T11:14:17;47.90;;;4.80;;
2838;SDS011;1427;48.510;9.060;2024-03-25T11:16:43;48.53;;;5.07;;
2838;SDS011;1427;48.510;9.060;2024-03-25T11:19:10;47.80;;;5.00;;
2838;SDS011;1427;48.510;9.060;2024-03-25T11:21:36;47.50;;;4.17;;
2838;SDS011;1427;48.510;9.060;2024-03-25T11:24:06;48.77;;;6.17;;
2838;SDS011;1427;48.510;9.060;2024-03-25T11:26:32;49.10;;;5.43;;
2838;SDS011;1427;48.510;9.060;2024-03-25T11:28:59;48.37;;;5.10;;
2838;SDS011;1427;48.510;9.060;2024-03-25T11:31:26;47.07;;;4.30;;
2838;SDS011;1427;48.510;9.060;2024-03-25T11:33:52;49.37;;;4.93;;
2838;SDS011;1427;48.510;9.060;2024-03-25T11:36:20;49.53;;;5.63;;
2838;SDS011;1427;48.510;9.060;2024-03-25T11:38:46;47.30;;;4.47;;
2838;SDS011;1427;48.510;9.060;2024-03-25T11:41:23;47.90;;;4.83;;
2838;SDS011;1427;48.510;9.060;2024-03-25T11:43:49;53.67;;;6.00;;
2838;SDS011;1427;48.510;9.060;2024-03-25T11:46:19;48.43;;;4.87;;
2838;SDS011;1427;48.510;9.060;2024-03-25T11:48:47;47.93;;;5.03;;
2838;SDS011;1427;48.510;9.060;2024-03-25T11:51:14;48.03;;;4.70;;
2838;SDS011;1427;48.510;9.060;2024-03-25T11:53:42;48.40;;;5.00;;
2838;SDS011;1427;48.510;9.060;2024-03-25T11:56:08;50.63;;;4.57;;
2838;SDS011;1427;48.510;9.060;2024-03-25T11:58:36;48.23;;;5.47;;
2838;SDS011;1427;48.510;9.060;2024-03-25T12:01:04;47.50;;;4.33;;
2838;SDS011;1427;48.510;9.060;2024-03-25T12:03:30;48.30;;;4.80;;
2838;SDS011;1427;48.510;9.060;2024-03-25T12:05:58;47.70;;;4.73;;
2838;SDS011;1427;48.510;9.060;2024-03-25T12:08:24;50.30;;;5.47;;
2838;SDS011;1427;48.510;9.060;2024-03-25T12:10:50;47.87;;;4.63;;
2838;SDS011;1427;48.510;9.060;2024-03-25T12:13:35;51.70;;;6.30;;
2838;SDS011;1427;48.510;9.060;2024-03-25T12:16:03;47.77;;;5.20;;
2838;SDS011;1427;48.510;9.060;2024-03-25T12:18:29;49.60;;;4.57;;
2838;SDS011;1427;48.510;9.060;2024-03-25T12:20:57;49.47;;;5.47;;
2838;SDS011;1427;48.510;9.060;2024-03-25T12:23:28;50.77;;;5.63;;
2838;SDS011;1427;48.510;9.060;2024-03-25T12:25:54;49.63;;;6.00;;
2838;SDS011;1427;48.510;9.060;2024-03-25T12:28:22;48.97;;;6.20;;
2838;SDS011;1427;48.510;9.060;2024-03-25T12:30:50;48.00;;;5.37;;
2838;SDS011;1427;48.510;9.060;2024-03-25T12:33:17;48.43;;;5.73;;
2838;SDS011;1427;48.510;9.060;2024-03-25T12:35:45;50.20;;;6.80;;
2838;SDS011;1427;48.510;9.060;2024-03-25T12:38:22;47.87;;;4.87;;
2838;SDS011;1427;48.510;9.060;2024-03-25T12:40:52;49.67;;;5.00;;
2838;SDS011;1427;48.510;9.060;2024-03-25T12:43:19;48.30;;;4.77;;
2838;SDS011;1427;48.510;9.060;2024-03-25T12:45:45;49.37;;;5.23;;
2838;SDS011;1427;48.510;9.060;2024-03-25T12:48:12;48.10;;;4.50;;
2838;SDS011;1427;48.510;9.060;2024-03-25T12:50:38;48.30;;;4.83;;
2838;SDS011;1427;48.510;9.060;2024-03-25T12:53:04;49.20;;;4.80;;
2838;SDS011;1427;48.510;9.060;2024-03-25T12:55:31;48.77;;;7.10;;
2838;SDS011;1427;48.510;9.060;2024-03-25T12:57:58;48.90;;;5.47;;
2838;SDS011;1427;48.510;9.060;2024-03-25T13:00:24;47.20;;;4.13;;
2838;SDS011;1427;48.510;9.060;2024-03-25T13:02:50;50.27;;;5.40;;
2838;SDS011;1427;48.510;9.060;2024-03-25T13:05:16;50.77;;;6.03;;
2838;SDS011;1427;48.510;9.060;2024-03-25T13:07:42;47.80;;;4.83;;
2838;SDS011;1427;48.510;9.060;2024-03-25T13:10:08;49.70;;;5.27;;
2838;SDS011;1427;48.510;9.060;2024-03-25T13:12:36;49.17;;;6.70;;
2838;SDS011;1427;48.510;9.060;2024-03-25T13:15:03;50.67;;;5.03;;
2838;SDS011;1427;48.510;9.060;2024-03-25T13:17:29;48.10;;;4.63;;
2838;SDS011;1427;48.510;9.060;2024-03-25T13:19:55;47.27;;;4.07;;
2838;SDS011;1427;48.510;9.060;2024-03-25T13:22:22;47.20;;;4.73;;
2838;SDS011;1427;48.510;9.060;2024-03-25T13:24:48;47.70;;;4.90;;
2838;SDS011;1427;48.510;9.060;2024-03-25T13:27:14;48.30;;;5.40;;
2838;SDS011;1427;48.510;9.060;2024-03-25T13:29:42;48.53;;;5.10;;
2838;SDS011;1427;48.510;9.060;2024-03-25T13:32:08;48.90;;;4.40;;
2838;SDS011;1427;48.510;9.060;2024-03-25T13:34:34;47.73;;;4.17;;
2838;SDS011;1427;48.510;9.060;2024-03-25T13:37:00;48.80;;;5.20;;
2838;SDS011;1427;48.510;9.060;2024-03-25T13:39:26;48.27;;;4.43;;
2838;SDS011;1427;48.510;9.060;2024-03-25T13:41:53;48.57;;;5.33;;
2838;SDS011;1427;48.510;9.060;2024-03-25T13:44:19;47.80;;;4.67;;
2838;SDS011;1427;48.510;9.060;2024-03-25T13:46:47;47.70;;;4.87;;
2838;SDS011;1427;48.510;9.060;2024-03-25T13:49:13;46.70;;;4.60;;
2838;SDS011;1427;48.510;9.060;2024-03-25T13:51:39;49.13;;;4.93;;
2838;SDS011;1427;48.510;9.060;2024-03-25T13:54:05;47.43;;;4.93;;
2838;SDS011;1427;48.510;9.060;2024-03-25T13:56:31;49.13;;;6.13;;
2838;SDS011;1427;48.510;9.060;2024-03-25T13:58:57;47.50;;;4.97;;
2838;SDS011;1427;48.510;9.060;2024-03-25T14:01:23;47.33;;;5.10;;
2838;SDS011;1427;48.510;9.060;2024-03-25T14:03:51;51.80;;;6.83;;
2838;SDS011;1427;48.510;9.060;2024-03-25T14:06:17;49.17;;;5.47;;
2838;SDS011;1427;48.510;9.060;2024-03-25T14:08:43;50.60;;;5.07;;
2838;SDS011;1427;48.510;9.060;2024-03-25T14:11:09;46.97;;;4.67;;
2838;SDS011;1427;48.510;9.060;2024-03-25T14:13:36;48.60;;;6.17;;
2838;SDS011;1427;48.510;9.060;2024-03-25T14:16:02;48.83;;;4.80;;
2838;SDS011;1427;48.510;9.060;2024-03-25T14:18:28;47.27;;;4.07;;
2838;SDS011;1427;48.510;9.060;2024-03-25T14:20:56;47.30;;;4.47;;
2838;SDS011;1427;48.510;9.060;2024-03-25T14:23:22;47.30;;;4.87;;
2838;SDS011;1427;48.510;9.060;2024-03-25T14:25:48;53.73;;;7.03;;
2838;SDS011;1427;48.510;9.060;2024-03-25T14:28:15;47.47;;;4.70;;
2838;SDS011;1427;48.510;9.060;2024-03-25T14:30:41;47.47;;;4.40;;
2838;SDS011;1427;48.510;9.060;2024-03-25T14:33:07;48.20;;;5.37;;
2838;SDS011;1427;48.510;9.060;2024-03-25T14:35:33;48.77;;;4.70;;
2838;SDS011;1427;48.510;9.060;2024-03-25T14:38:01;48.50;;;4.30;;
2838;SDS011;1427;48.510;9.060;2024-03-25T14:40:30;47.90;;;4.50;;
2838;SDS011;1427;48.510;9.060;2024-03-25T14:43:03;47.27;;;4.40;;
2838;SDS011;1427;48.510;9.060;2024-03-25T14:45:30;48.00;;;5.07;;
2838;SDS011;1427;48.510;9.060;2024-03-25T14:47:56;47.40;;;4.83;;
2838;SDS011;1427;48.510;9.060;2024-03-25T14:50:23;46.73;;;4.53;;
2838;SDS011;1427;48.510;9.060;2024-03-25T14:52:49;47.90;;;4.67;;
2838;SDS011;1427;48.510;9.060;2024-03-25T14:55:17;48.70;;;4.87;;
2838;SDS011;1427;48.510;9.060;2024-03-25T14:57:44;47.97;;;5.20;;
2838;SDS011;1427;48.510;9.060;2024-03-25T15:00:11;47.70;;;4.53;;